createdAt,value
2019-05-13T00:04:48.622Z,11.10
2019-05-13T00:09:54.381Z,11.10
2019-05-13T00:14:58.064Z,11.00
2019-05-13T00:20:04.039Z,11.00
2019-05-13T00:25:07.250Z,10.90
2019-05-13T00:30:11.466Z,10.70
2019-05-13T00:35:15.226Z,10.70
2019-05-13T00:40:18.938Z,10.50
2019-05-13T00:45:24.512Z,10.40
2019-05-13T00:50:28.081Z,10.30
2019-05-13T00:55:34.062Z,10.10
2019-05-13T01:00:37.465Z,9.90
2019-05-13T01:05:41.149Z,9.70
2019-05-13T01:10:45.311Z,9.70
2019-05-13T01:15:49.661Z,9.70
2019-05-13T01:20:53.887Z,9.50
2019-05-13T01:25:57.782Z,9.60
2019-05-13T01:31:03.940Z,9.40
2019-05-13T01:36:07.308Z,9.60
2019-05-13T01:41:13.488Z,9.40
2019-05-13T01:46:16.981Z,9.20
2019-05-13T01:51:21.056Z,8.90
2019-05-13T01:56:24.776Z,8.70
2019-05-13T02:01:28.475Z,8.70
2019-05-13T02:06:33.671Z,8.50
2019-05-13T02:11:37.736Z,8.30
2019-05-13T02:16:44.367Z,8.20
2019-05-13T02:21:47.514Z,8.10
2019-05-13T02:26:54.246Z,7.90
2019-05-13T02:31:57.730Z,7.80
2019-05-13T02:37:03.164Z,7.70
2019-05-13T02:42:06.911Z,7.70
2019-05-13T02:47:12.289Z,7.50
2019-05-13T02:52:15.974Z,7.60
2019-05-13T02:57:23.318Z,7.60
2019-05-13T03:02:26.345Z,7.80
2019-05-13T03:07:33.075Z,7.80
2019-05-13T03:12:35.529Z,7.60
2019-05-13T03:17:43.387Z,7.60
2019-05-13T03:22:47.255Z,7.40
2019-05-13T03:27:54.088Z,7.20
2019-05-13T03:33:02.144Z,7.10
2019-05-13T03:38:03.622Z,7.00
2019-05-13T03:43:08.993Z,7.10
2019-05-13T03:48:13.006Z,7.10
2019-05-13T03:53:16.775Z,7.10
2019-05-13T03:58:23.665Z,7.30
2019-05-13T04:03:25.985Z,7.10
2019-05-13T04:08:32.497Z,7.00
2019-05-13T04:13:35.380Z,7.00
2019-05-13T04:18:42.353Z,7.10
2019-05-13T04:23:45.026Z,7.30
2019-05-13T04:28:52.418Z,7.40
2019-05-13T04:33:55.298Z,7.50
2019-05-13T04:39:03.019Z,7.60
2019-05-13T04:44:05.194Z,7.90
2019-05-13T04:49:12.397Z,8.00
2019-05-13T04:54:14.571Z,7.90
2019-05-13T04:59:18.284Z,8.10
2019-05-13T05:04:54.427Z,8.20
2019-05-13T05:10:33.671Z,8.20
2019-05-13T05:15:52.047Z,8.30
2019-05-13T05:21:21.681Z,8.50
2019-05-13T05:27:01.472Z,8.60
2019-05-13T05:32:21.800Z,8.40
2019-05-13T05:37:52.622Z,8.70
2019-05-13T05:42:58.709Z,8.80
2019-05-13T05:48:04.402Z,8.80
2019-05-13T05:53:11.146Z,9.00
2019-05-13T05:58:16.704Z,8.90
2019-05-13T06:03:23.887Z,9.00
2019-05-13T06:08:28.010Z,9.10
2019-05-13T06:13:31.811Z,9.40
2019-05-13T06:18:35.635Z,9.50
2019-05-13T06:23:41.848Z,9.70
2019-05-13T06:28:45.675Z,9.60
2019-05-13T06:33:51.373Z,9.80
2019-05-13T06:38:55.187Z,9.80
2019-05-13T06:44:01.619Z,10.00
2019-05-13T06:49:04.880Z,10.10
2019-05-13T06:54:11.104Z,10.20
2019-05-13T06:59:14.579Z,10.30
2019-05-13T07:04:18.629Z,10.40
2019-05-13T07:09:22.355Z,10.30
2019-05-13T07:14:26.122Z,10.40
2019-05-13T07:19:32.258Z,10.50
2019-05-13T07:24:35.393Z,10.60
2019-05-13T07:29:39.150Z,10.80
2019-05-13T07:34:43.836Z,10.90
2019-05-13T07:39:48.549Z,10.80
2019-05-13T07:44:52.421Z,10.90
2019-05-13T07:49:56.290Z,11.00
2019-05-13T07:55:01.649Z,11.20
2019-05-13T08:00:06.121Z,11.40
2019-05-13T08:05:11.982Z,11.50
2019-05-13T08:10:15.779Z,11.40
2019-05-13T08:15:22.194Z,11.60
2019-05-13T08:20:25.079Z,11.70
2019-05-13T08:25:31.601Z,11.90
2019-05-13T08:30:35.594Z,12.20
2019-05-13T08:35:41.573Z,12.40
2019-05-13T08:40:45.284Z,12.80
2019-05-13T08:45:51.192Z,13.10
2019-05-13T08:50:54.479Z,13.10
2019-05-13T08:55:58.204Z,13.90
2019-05-13T09:01:02.477Z,16.20
2019-05-13T09:06:06.654Z,16.90
2019-05-13T09:11:12.073Z,17.70
2019-05-13T09:16:15.935Z,19.00
2019-05-13T09:21:22.286Z,20.80
2019-05-13T09:26:25.997Z,20.60
2019-05-13T09:31:32.221Z,20.10
2019-05-13T09:36:35.342Z,21.80
2019-05-13T09:41:43.674Z,24.40
2019-05-13T09:46:44.515Z,24.40
2019-05-13T09:52:25.796Z,25.00
2019-05-13T09:57:21.997Z,24.70
2019-05-13T10:02:26.404Z,25.20
2019-05-13T10:07:31.832Z,23.60
2019-05-13T10:12:36.822Z,24.80
2019-05-13T10:17:42.810Z,29.50
2019-05-13T10:22:47.367Z,25.40
2019-05-13T10:27:51.190Z,23.20
2019-05-13T10:33:02.886Z,26.20
2019-05-13T10:38:05.978Z,22.70
2019-05-13T10:43:27.161Z,26.10
2019-05-13T10:48:15.337Z,29.90
2019-05-13T10:53:19.081Z,30.20
2019-05-13T10:58:24.781Z,31.10
2019-05-13T11:03:28.494Z,27.50
2019-05-13T11:08:33.506Z,24.90
2019-05-13T11:13:56.305Z,21.10
2019-05-13T11:18:52.169Z,21.80
2019-05-13T11:24:07.030Z,21.80
2019-05-13T11:29:23.022Z,22.60
2019-05-13T11:34:32.934Z,27.50
2019-05-13T11:39:39.246Z,31.50
2019-05-13T11:44:44.112Z,26.10
2019-05-13T11:49:52.161Z,22.20
2019-05-13T11:54:59.561Z,20.30
2019-05-13T12:00:13.441Z,21.10
2019-05-13T12:05:22.577Z,26.70
2019-05-13T12:10:51.151Z,31.20
2019-05-13T12:15:58.431Z,29.80
2019-05-13T12:21:13.927Z,31.60
2019-05-13T12:26:23.742Z,30.10
2019-05-13T12:31:28.683Z,23.90
2019-05-13T12:36:33.372Z,20.90
2019-05-13T12:41:38.004Z,20.00
2019-05-13T12:48:14.096Z,20.60
2019-05-13T12:53:56.740Z,25.30
2019-05-13T12:59:47.333Z,24.80
2019-05-13T13:05:10.789Z,22.40
2019-05-13T13:16:35.428Z,21.10
2019-05-13T13:21:45.669Z,22.40
2019-05-13T13:28:09.824Z,25.00
2019-05-13T13:34:11.220Z,26.70
2019-05-13T13:51:14.145Z,21.50
2019-05-13T13:57:07.308Z,21.00
2019-05-13T14:08:37.004Z,20.20
2019-05-13T14:13:53.034Z,19.70
2019-05-13T14:24:33.187Z,19.90
2019-05-13T14:29:49.303Z,19.80
2019-05-13T14:35:16.679Z,19.50
2019-05-13T14:41:33.372Z,22.50
2019-05-13T14:53:13.650Z,21.00
2019-05-13T15:11:32.189Z,22.10
2019-05-13T15:17:00.191Z,23.50
2019-05-13T15:27:45.377Z,23.30
2019-05-13T15:45:56.312Z,24.10
2019-05-13T15:56:45.430Z,23.00
2019-05-13T16:02:26.793Z,21.80
2019-05-13T16:08:11.991Z,20.70
2019-05-13T16:13:15.058Z,19.20
2019-05-13T16:18:18.806Z,20.70
2019-05-13T16:23:22.529Z,21.00
2019-05-13T16:28:26.263Z,21.00
2019-05-13T16:33:31.398Z,19.20
2019-05-13T16:38:35.730Z,19.80
2019-05-13T16:43:39.606Z,19.50
2019-05-13T16:48:43.307Z,19.70
2019-05-13T16:53:47.031Z,20.30
2019-05-13T16:58:52.488Z,20.90
2019-05-13T17:03:56.521Z,20.60
2019-05-13T17:09:02.057Z,19.00
2019-05-13T17:14:06.014Z,18.20
2019-05-13T17:19:12.118Z,17.70
2019-05-13T17:24:15.418Z,17.40
2019-05-13T17:29:21.097Z,17.20
2019-05-13T17:34:24.584Z,17.00
2019-05-13T17:39:28.359Z,16.80
2019-05-13T17:44:32.290Z,16.40
2019-05-13T17:49:36.010Z,16.20
2019-05-13T17:54:42.594Z,15.90
2019-05-13T17:59:48.429Z,15.70
2019-05-13T18:04:52.446Z,15.40
2019-05-13T18:09:56.588Z,15.20
2019-05-13T18:15:02.450Z,15.00
2019-05-13T18:20:06.372Z,14.60
2019-05-13T18:25:43.040Z,14.50
2019-05-13T18:36:57.852Z,14.00
2019-05-13T18:42:01.692Z,13.60
2019-05-13T18:47:06.650Z,13.50
2019-05-13T18:52:11.646Z,13.30
2019-05-13T18:57:15.577Z,13.10
2019-05-13T19:02:21.333Z,13.10
2019-05-13T19:07:24.815Z,13.10
2019-05-13T19:12:31.603Z,13.30
2019-05-13T19:17:36.295Z,13.30
2019-05-13T19:22:41.301Z,13.00
2019-05-13T19:27:45.130Z,12.80
2019-05-13T19:32:49.315Z,12.40
2019-05-13T19:37:53.035Z,12.20
2019-05-13T19:42:56.967Z,11.90
2019-05-13T19:48:04.824Z,11.80
2019-05-13T19:53:08.665Z,11.70
2019-05-13T19:58:12.656Z,11.70
2019-05-13T20:03:18.520Z,11.90
2019-05-13T20:08:22.703Z,11.90
2019-05-13T20:13:26.923Z,11.80
2019-05-13T20:18:32.001Z,11.50
2019-05-13T20:23:35.898Z,11.20
2019-05-13T20:28:42.026Z,11.20
2019-05-13T20:33:46.100Z,11.10
2019-05-13T20:38:51.691Z,11.20
2019-05-13T20:43:56.428Z,11.10
2019-05-13T20:49:00.409Z,11.30
2019-05-13T20:54:04.323Z,11.40
2019-05-13T20:59:08.146Z,11.40
2019-05-13T21:04:14.636Z,11.70
2019-05-13T21:09:22.497Z,11.70
2019-05-13T21:14:26.381Z,11.70
2019-05-13T21:19:39.701Z,11.60
2019-05-13T21:24:41.305Z,11.60
2019-05-13T21:29:45.273Z,11.50
2019-05-13T21:34:51.457Z,11.50
2019-05-13T21:39:54.691Z,11.40
2019-05-13T21:45:01.629Z,11.30
2019-05-13T21:50:05.458Z,11.20
2019-05-13T21:55:11.360Z,11.20
2019-05-13T22:00:23.424Z,11.00
2019-05-13T22:05:31.420Z,11.20
2019-05-13T22:10:35.472Z,11.40
2019-05-13T22:15:41.473Z,11.10
2019-05-13T22:20:49.969Z,10.80
2019-05-13T22:25:51.899Z,10.60
2019-05-13T22:30:56.879Z,10.30
2019-05-13T22:36:01.629Z,9.90
2019-05-13T22:41:05.555Z,9.80
2019-05-13T22:46:13.901Z,9.40
2019-05-13T22:51:14.982Z,9.30
2019-05-13T22:56:18.681Z,9.10
2019-05-13T23:01:22.380Z,9.20
2019-05-13T23:06:26.297Z,8.90
2019-05-13T23:11:31.053Z,8.80
2019-05-13T23:16:34.878Z,8.70
2019-05-13T23:21:38.838Z,8.50
2019-05-13T23:26:42.766Z,8.30
2019-05-13T23:31:46.688Z,8.20
2019-05-13T23:36:51.499Z,8.20
2019-05-13T23:41:55.403Z,8.10
2019-05-13T23:46:59.105Z,7.90
2019-05-13T23:52:03.014Z,8.00
2019-05-13T23:57:06.728Z,8.10
